Garden Valley, ID (83622)

12:17 PM MDT on April 24, 2017 (GMT -0600)
Crouch Idaho | | Change Station

Elev 3129 ft 44.12 °N, 115.97 °W | Updated 11 seconds ago

Rain
Rain
43.0 °F
Feels Like 41 °F
N
4.0
Wind Variable Wind from South

Today
High -- | Low -- °F
--% Chance of Precip.
Yesterday
High -- | Low -- °F
Precip. -- in
Pressure 29.75 in
Visibility 10.0 miles
Clouds Mostly Cloudy 800 ft
Mostly Cloudy 2100 ft
Overcast 3000 ft
Windchill 41 °F
Dew Point 40 °F
Humidity 91%
Rainfall 0.23 in
Snow Depth Not available.
6:45 AM 8:39 PM
Waning Crescent, 4% visible
SPECI KBOI 241806Z 26005KT 10SM -RA BKN008 BKN021 OVC030 08/05 A2975 RMK AO2 P0000 T00780050
Pressure 29.75 in
Visibility 10.0 miles
Clouds Mostly Cloudy 800 ft
Mostly Cloudy 2100 ft
Overcast 3000 ft
Windchill 41 °F
Dew Point 40 °F
Humidity 91%
Rainfall 0.23 in
Snow Depth Not available.
6:45 AM 8:39 PM
Waning Crescent, 4% visible
SPECI KBOI 241806Z 26005KT 10SM -RA BKN008 BKN021 OVC030 08/05 A2975 RMK AO2 P0000 T00780050

Get Severe Weather Alerts

Thanks for signing up!

Be on the lookout for a verification email in your inbox.

You'll start receiving the daily forecast at 8 AM.

×

10-Day Weather Forecast

Almanac

Astronomy

Apr. 24, 2017 Rise Set
Actual Time
Civil Twilight
Nautical Twilight
Astronomical Twilight
Moon
Length of Visible Light
Length of Day
Tomorrow will be .
, % of the Moon is Illuminated

Today's Extremes

State Highs State Lows

Community

WunderPhotos

WunderBlog® & News

Nearby

Air Quality

  Air Quality AQ Index Pollutant
Not available.

Snow Depth

Station Depth Elevation

Earthquake Activity

City Distance Mag. Time & Date
Minimum magnitude displayed is 2.5.

Coastal Water Temperatures

Place Temperature

Stations

Nearby Weather Stations

Station Location Temp. Windchill Dew Point Humidity Wind Precip. Elev Updated Type
                   

Watches & Warnings

There are currently no watches in effect.